Allendorf, Iowa
Current Conditions -  °F | °C
As of 5:55 PM on Sunday 23 Nov 2014 (Local Time) from KSHL Reporting Station
Overcast Overcast  
Wind Chill: 29°   Ceiling: 3500
Heat Index: 37°   Visibility: 10mi
Dew Point: 30°   Wind: 14mph
Humidity: 75%   Direction: 330°NNW
Pressure: 29.5"   Gusts: 25mph
Location:  43.41°N, 95.64°W
Report Text: KSHL 232355Z AUTO 33012G22KT 10SM SCT027 OVC035 03/M01 A2950 RMK AO2
Loading
Personal Weather Stations






























Interactive Weather Map New forecast layout! Learn more

10-Day Weather Forecast

Advertisements
Track Severe Weather on mobile